Time;durP1;ratioP1;P1;durP2;ratioP2;P2;SDS_P1;SDS_P2;PMS_P1;PMS_P2;Temp;Humidity;BMP_temperature;BMP_pressure;BME280_temperature;BME280_humidity;BME280_pressure;Samples;Min_cycle;Max_cycle;Signal;HPM_P1;HPM_P2
2021/07/23 00:01:54;;;;;;;4.58;1.70;;;;;;;13.50;82.67;100516.21;1697405;83;21505;-38
2021/07/23 00:04:20;;;;;;;3.70;1.92;;;;;;;13.44;82.88;100509.44;1703808;84;21834;-38
2021/07/23 00:06:48;;;;;;;5.65;1.80;;;;;;;13.43;83.35;100510.33;1698044;84;21545;-39
2021/07/23 00:09:14;;;;;;;2.95;2.10;;;;;;;13.40;83.50;100514.30;1709712;83;20944;-39
2021/07/23 00:11:41;;;;;;;4.75;1.92;;;;;;;13.36;83.62;100514.82;1707341;83;21043;-39
2021/07/23 00:14:07;;;;;;;7.60;1.40;;;;;;;13.33;83.73;100512.78;1692974;84;20983;-39
2021/07/23 00:16:34;;;;;;;6.90;1.90;;;;;;;13.32;83.80;100514.98;1685869;83;21213;-38
2021/07/23 00:19:01;;;;;;;13.68;1.50;;;;;;;13.32;84.09;100517.58;1681113;84;20936;-38
2021/07/23 00:21:27;;;;;;;2.08;1.87;;;;;;;13.29;84.10;100515.07;1667571;84;21094;-39
2021/07/23 00:23:54;;;;;;;5.05;1.82;;;;;;;13.28;84.08;100514.20;1670738;85;21079;-40
2021/07/23 00:26:21;;;;;;;1.75;1.50;;;;;;;13.28;84.07;100518.10;1652146;86;20983;-37
2021/07/23 00:28:48;;;;;;;1.67;1.35;;;;;;;13.27;84.01;100520.77;1663689;84;21220;-38
2021/07/23 00:31:14;;;;;;;1.70;1.60;;;;;;;13.23;84.21;100518.69;1656694;85;21031;-38
2021/07/23 00:33:41;;;;;;;5.12;1.90;;;;;;;13.19;84.40;100514.48;1663163;85;20991;-39
2021/07/23 00:36:09;;;;;;;3.30;2.12;;;;;;;13.15;84.48;100518.90;1640267;85;21076;-39
2021/07/23 00:38:35;;;;;;;3.52;1.60;;;;;;;13.11;84.47;100514.69;1687405;84;20917;-38
2021/07/23 00:41:01;;;;;;;2.00;1.77;;;;;;;13.09;84.76;100520.38;1659883;85;21321;-39
2021/07/23 00:43:28;;;;;;;6.05;1.62;;;;;;;13.06;84.69;100525.20;1664714;85;20974;-37
2021/07/23 00:45:55;;;;;;;3.87;1.70;;;;;;;13.04;84.79;100526.16;1686241;84;21070;-37
2021/07/23 00:48:23;;;;;;;5.58;1.65;;;;;;;13.04;84.94;100522.26;1679047;84;21007;-40
2021/07/23 00:50:51;;;;;;;2.08;1.57;;;;;;;13.02;84.95;100524.05;1681592;84;21007;-38
2021/07/23 00:53:17;;;;;;;4.65;1.60;;;;;;;12.98;84.90;100519.38;1678189;84;21215;-38
2021/07/23 00:55:54;;;;;;;4.10;1.98;;;;;;;12.97;85.08;100517.67;1653753;84;20987;-39
2021/07/23 00:58:26;;;;;;;1.90;1.60;;;;;;;12.93;85.20;100514.30;1675038;84;20961;-39
2021/07/23 01:00:54;;;;;;;2.65;2.20;;;;;;;12.90;85.39;100514.38;1675901;84;21049;-39
2021/07/23 01:03:22;;;;;;;6.70;1.52;;;;;;;12.88;85.59;100517.47;1681150;84;21529;-38
2021/07/23 01:05:51;;;;;;;3.12;1.90;;;;;;;12.82;85.68;100511.15;1689950;84;21305;-39
2021/07/23 01:08:17;;;;;;;2.20;1.92;;;;;;;12.76;85.94;100521.71;1690569;83;21110;-38
2021/07/23 01:10:46;;;;;;;5.62;1.70;;;;;;;12.71;86.31;100518.36;1696754;83;20999;-39
2021/07/23 01:13:19;;;;;;;8.73;1.80;;;;;;;12.68;86.37;100519.73;1691122;83;20960;-39
2021/07/23 01:15:47;;;;;;;3.27;1.80;;;;;;;12.66;86.35;100522.39;1696940;84;20932;-39
2021/07/23 01:18:14;;;;;;;2.55;1.62;;;;;;;12.63;86.66;100515.52;1696929;83;21151;-38
2021/07/23 01:20:43;;;;;;;1.45;1.35;;;;;;;12.60;86.57;100521.23;1683064;83;21580;-39
2021/07/23 01:23:10;;;;;;;4.53;1.50;;;;;;;12.56;86.76;100514.42;1688936;84;21039;-39
2021/07/23 01:25:37;;;;;;;5.25;2.00;;;;;;;12.53;87.25;100519.27;1692592;83;21138;-38
2021/07/23 01:28:04;;;;;;;8.30;1.80;;;;;;;12.54;87.29;100522.69;1669332;84;21074;-38
2021/07/23 01:30:35;;;;;;;3.85;1.57;;;;;;;12.50;87.39;100521.48;1696418;83;21311;-38
2021/07/23 01:33:09;;;;;;;6.65;1.77;;;;;;;12.49;87.63;100527.56;1693422;83;21018;-40
2021/07/23 01:35:36;;;;;;;5.58;1.67;;;;;;;12.48;87.72;100528.45;1697145;83;20983;-39
2021/07/23 01:38:03;;;;;;;9.43;1.75;;;;;;;12.47;87.88;100531.08;1696857;83;20870;-39
2021/07/23 01:40:31;;;;;;;11.55;1.95;;;;;;;12.47;88.00;100531.08;1674696;84;21074;-38
2021/07/23 01:42:58;;;;;;;6.10;1.80;;;;;;;12.44;88.19;100532.02;1668903;84;21156;-38
2021/07/23 01:45:24;;;;;;;15.65;1.90;;;;;;;12.43;88.31;100528.16;1697136;84;20963;-38
2021/07/23 01:47:53;;;;;;;10.30;2.30;;;;;;;12.42;88.46;100532.51;1693615;84;20983;-37
2021/07/23 01:50:21;;;;;;;10.72;2.30;;;;;;;12.39;88.60;100525.23;1697089;84;20888;-39
2021/07/23 01:52:48;;;;;;;11.10;1.98;;;;;;;12.37;88.61;100534.34;1693906;84;21033;-38
2021/07/23 01:55:17;;;;;;;10.18;1.82;;;;;;;12.34;88.62;100533.98;1696117;84;21122;-39
2021/07/23 01:57:44;;;;;;;27.67;2.20;;;;;;;12.30;88.78;100535.39;1694347;84;21030;-39
2021/07/23 02:00:13;;;;;;;13.83;1.85;;;;;;;12.28;89.06;100538.04;1696803;84;20992;-40
2021/07/23 02:02:42;;;;;;;7.30;1.95;;;;;;;12.25;89.47;100536.83;1697478;83;20979;-38
2021/07/23 02:05:11;;;;;;;10.25;1.90;;;;;;;12.23;89.80;100534.68;1696082;84;21519;-39
2021/07/23 02:07:38;;;;;;;12.03;1.72;;;;;;;12.23;90.12;100540.33;1697728;83;21261;-40
2021/07/23 02:10:06;;;;;;;6.12;2.17;;;;;;;12.20;90.37;100542.54;1699666;83;21537;-39
2021/07/23 02:12:33;;;;;;;13.65;2.83;;;;;;;12.17;90.91;100537.43;1696292;82;20956;-39
2021/07/23 02:15:08;;;;;;;7.70;1.87;;;;;;;12.16;91.00;100539.62;1700075;83;20914;-39
2021/07/23 02:17:35;;;;;;;10.50;2.42;;;;;;;12.15;91.10;100548.30;1697381;84;21001;-38
2021/07/23 02:20:07;;;;;;;6.78;2.12;;;;;;;12.11;91.11;100548.80;1691119;84;20950;-39
2021/07/23 02:22:38;;;;;;;15.43;2.70;;;;;;;12.10;91.48;100554.04;1702585;84;21010;-40
2021/07/23 02:25:07;;;;;;;25.25;2.75;;;;;;;12.12;91.75;100549.66;1703553;82;21504;-40
2021/07/23 02:27:35;;;;;;;20.12;3.67;;;;;;;12.15;91.85;100548.30;1699757;83;20940;-40
2021/07/23 02:30:03;;;;;;;10.63;2.50;;;;;;;12.17;92.05;100556.89;1696587;84;20897;-39
2021/07/23 02:32:31;;;;;;;16.82;2.12;;;;;;;12.16;92.12;100556.05;1680376;84;21120;-39
2021/07/23 02:34:59;;;;;;;21.73;2.72;;;;;;;12.19;92.25;100562.47;1698124;84;20908;-39
2021/07/23 02:37:27;;;;;;;28.20;2.90;;;;;;;12.22;92.24;100561.52;1698061;83;20948;-39
2021/07/23 02:39:56;;;;;;;16.73;2.40;;;;;;;12.25;92.24;100565.80;1700231;84;21028;-39
2021/07/23 02:42:24;;;;;;;13.30;2.67;;;;;;;12.27;92.25;100573.10;1703268;82;21067;-39
2021/07/23 02:44:51;;;;;;;13.32;2.83;;;;;;;12.29;92.16;100567.00;1670556;84;21944;-39
2021/07/23 02:47:18;;;;;;;19.77;2.50;;;;;;;12.31;92.02;100565.22;1695666;82;21048;-39
2021/07/23 02:49:45;;;;;;;17.70;2.27;;;;;;;12.34;91.93;100568.16;1700049;84;21018;-39
2021/07/23 02:52:12;;;;;;;9.03;1.95;;;;;;;12.37;91.77;100571.98;1692214;83;20984;-38
2021/07/23 02:54:41;;;;;;;9.13;2.05;;;;;;;12.41;91.68;100572.34;1705384;83;20943;-39
2021/07/23 02:57:08;;;;;;;14.25;2.20;;;;;;;12.48;91.54;100573.02;1701507;84;21572;-40
2021/07/23 02:59:36;;;;;;;4.87;2.17;;;;;;;12.51;91.34;100571.67;1702253;84;20960;-38
2021/07/23 03:02:03;;;;;;;7.20;2.00;;;;;;;12.54;91.11;100576.79;1699335;84;20908;-40
2021/07/23 03:04:30;;;;;;;13.78;2.02;;;;;;;12.57;90.96;100575.41;1699563;84;20988;-39
2021/07/23 03:06:58;;;;;;;19.05;2.27;;;;;;;12.62;90.75;100576.14;1704894;83;21000;-39
2021/07/23 03:09:25;;;;;;;33.10;2.72;;;;;;;12.68;90.59;100578.17;1703771;83;21907;-38
2021/07/23 03:11:53;;;;;;;19.62;2.30;;;;;;;12.73;90.42;100577.60;1719493;83;20859;-40
2021/07/23 03:14:20;;;;;;;23.67;2.30;;;;;;;12.79;90.16;100573.58;1719315;82;21551;-39
2021/07/23 03:16:52;;;;;;;39.05;3.52;;;;;;;12.87;89.69;100574.22;1714521;83;20931;-39
2021/07/23 03:19:19;;;;;;;24.32;3.30;;;;;;;12.93;89.34;100577.95;1719467;83;21044;-39
2021/07/23 03:21:47;;;;;;;23.83;2.50;;;;;;;12.99;89.05;100579.54;1719719;83;21149;-39
2021/07/23 03:24:14;;;;;;;18.07;2.30;;;;;;;13.06;88.70;100578.47;1692707;83;20935;-39
2021/07/23 03:26:41;;;;;;;8.00;1.70;;;;;;;13.12;88.17;100577.89;1718260;82;21539;-39
2021/07/23 03:29:09;;;;;;;11.12;2.12;;;;;;;13.19;87.73;100573.80;1719503;82;20883;-40
2021/07/23 03:31:36;;;;;;;7.95;2.27;;;;;;;13.27;87.50;100582.69;1719875;83;22295;-39
2021/07/23 03:34:23;;;;;;;4.05;1.72;;;;;;;13.34;87.14;100582.08;1719326;83;22240;-39
2021/07/23 03:36:51;;;;;;;6.70;1.37;;;;;;;13.44;86.86;100579.64;1718050;83;20992;-39
2021/07/23 03:39:20;;;;;;;5.58;1.50;;;;;;;13.53;86.19;100581.12;1692229;83;21021;-39
2021/07/23 03:41:47;;;;;;;9.50;1.80;;;;;;;13.62;85.37;100582.15;1733484;82;20976;-40
2021/07/23 03:44:19;;;;;;;7.62;1.45;;;;;;;13.72;85.06;100585.34;1719533;82;20986;-39
2021/07/23 03:46:47;;;;;;;7.42;1.10;;;;;;;13.81;84.84;100581.62;1719708;83;20942;-39
2021/07/23 03:49:14;;;;;;;3.98;1.30;;;;;;;13.89;84.10;100580.09;1719524;83;20958;-39
2021/07/23 03:51:47;;;;;;;9.80;1.57;;;;;;;13.97;83.61;100576.80;1719867;82;21016;-40
2021/07/23 03:54:16;;;;;;;6.58;1.35;;;;;;;14.07;83.21;100584.73;1667524;85;21508;-38
2021/07/23 03:56:42;;;;;;;15.35;1.65;;;;;;;14.20;82.63;100581.73;1719581;82;20999;-41
2021/07/23 03:59:10;;;;;;;6.25;1.75;;;;;;;14.36;82.00;100578.19;1719215;83;21170;-41
2021/07/23 04:01:45;;;;;;;2.70;1.02;;;;;;;14.56;81.66;100580.17;1671755;85;21031;-41
2021/07/23 04:04:12;;;;;;;11.12;1.60;;;;;;;14.86;81.04;100572.68;1674911;85;20921;-40
2021/07/23 04:06:38;;;;;;;3.25;1.47;;;;;;;15.18;80.64;100567.64;1671975;85;21477;-41
2021/07/23 04:09:06;;;;;;;2.52;1.15;;;;;;;15.55;79.38;100569.83;1649983;85;21061;-39
2021/07/23 04:11:46;;;;;;;7.08;1.77;;;;;;;15.88;78.05;100569.44;1653107;85;21207;-39
2021/07/23 04:14:07;;;;;;;8.05;1.20;;;;;;;16.15;77.13;100568.81;1680094;84;20915;-40
2021/07/23 04:16:35;;;;;;;2.95;1.30;;;;;;;16.44;76.47;100564.64;1681491;84;21489;-40
2021/07/23 04:19:02;;;;;;;2.87;1.00;;;;;;;16.72;75.23;100563.04;1681052;85;20992;-40
2021/07/23 04:21:31;;;;;;;1.52;0.90;;;;;;;16.95;72.13;100563.82;1681114;85;21108;-39
2021/07/23 04:24:01;;;;;;;3.58;1.30;;;;;;;17.08;71.15;100558.94;1681431;84;21821;-39
2021/07/23 04:26:28;;;;;;;8.90;1.32;;;;;;;17.31;71.16;100563.60;1653864;85;21623;-39
2021/07/23 04:28:55;;;;;;;1.47;1.15;;;;;;;17.62;70.27;100564.81;1649062;86;21004;-39
2021/07/23 04:31:22;;;;;;;4.87;1.02;;;;;;;17.93;68.45;100567.30;1650377;85;21621;-39
2021/07/23 04:34:05;;;;;;;4.62;1.17;;;;;;;18.15;67.33;100562.37;1713922;82;20949;-40
2021/07/23 04:36:34;;;;;;;2.50;1.07;;;;;;;18.37;66.45;100559.53;1714063;83;21113;-40
2021/07/23 04:39:03;;;;;;;2.05;1.20;;;;;;;18.57;65.81;100558.56;1711373;83;21009;-40
2021/07/23 04:41:31;;;;;;;3.42;1.37;;;;;;;18.78;63.21;100555.74;1713807;83;20873;-39
2021/07/23 04:43:58;;;;;;;5.55;1.40;;;;;;;18.85;63.58;100558.91;1709363;82;20999;-40
2021/07/23 04:46:25;;;;;;;1.75;1.22;;;;;;;19.03;63.19;100557.12;1714057;83;21406;-39
2021/07/23 04:48:52;;;;;;;1.40;1.30;;;;;;;19.23;62.55;100559.55;1713775;83;21962;-40
2021/07/23 04:51:30;;;;;;;1.87;1.30;;;;;;;19.49;62.74;100558.61;1713065;83;20969;-39
2021/07/23 04:54:15;;;;;;;2.72;1.30;;;;;;;19.69;61.61;100560.62;1684757;85;21031;-40
2021/07/23 04:57:00;;;;;;;1.37;0.80;;;;;;;19.86;60.00;100553.59;1686759;83;20959;-40
2021/07/23 04:59:28;;;;;;;2.77;1.00;;;;;;;19.65;59.66;100564.34;1712223;83;21501;-39
2021/07/23 05:01:54;;;;;;;2.52;1.10;;;;;;;19.63;60.95;100558.34;1709326;83;21094;-38
2021/07/23 05:04:21;;;;;;;7.97;1.20;;;;;;;19.84;61.48;100560.71;1713818;82;20955;-37
2021/07/23 05:06:49;;;;;;;3.15;1.25;;;;;;;20.08;60.53;100552.80;1708964;83;21531;-38
2021/07/23 05:09:17;;;;;;;1.80;1.22;;;;;;;20.24;59.50;100554.07;1712599;83;20991;-37
2021/07/23 05:11:44;;;;;;;4.95;1.30;;;;;;;20.48;58.66;100551.41;1697423;82;20952;-40
2021/07/23 05:14:11;;;;;;;1.60;1.20;;;;;;;20.74;56.32;100550.33;1701878;82;21717;-38
2021/07/23 05:16:38;;;;;;;6.22;1.47;;;;;;;20.87;56.29;100547.84;1706110;84;21753;-38
2021/07/23 05:19:05;;;;;;;2.05;1.50;;;;;;;21.06;56.04;100546.24;1678790;83;21489;-37
2021/07/23 05:21:34;;;;;;;3.20;1.00;;;;;;;21.28;55.87;100550.19;1682754;84;21062;-39
2021/07/23 05:24:03;;;;;;;2.17;1.15;;;;;;;21.48;55.19;100555.05;1698407;84;21030;-40
2021/07/23 05:26:38;;;;;;;5.33;0.95;;;;;;;21.55;55.70;100552.89;1698705;83;21140;-39
2021/07/23 05:29:06;;;;;;;;;;;;;;;21.60;55.23;100553.89;1700320;84;20957;-40
2021/07/23 05:31:33;;;;;;;3.55;1.20;;;;;;;21.67;53.56;100552.61;1693151;84;20130;-37
2021/07/23 05:34:04;;;;;;;3.52;0.70;;;;;;;21.69;53.95;100558.63;1704543;84;21006;-40
2021/07/23 05:36:28;;;;;;;3.52;0.95;;;;;;;21.92;53.77;100558.45;1698245;83;21566;-40
2021/07/23 05:38:55;;;;;;;3.33;0.90;;;;;;;22.13;52.96;100558.48;1704028;84;21038;-40
2021/07/23 05:41:21;;;;;;;3.92;0.72;;;;;;;22.20;51.27;100550.54;1706022;83;20924;-39
2021/07/23 05:43:48;;;;;;;1.82;1.00;;;;;;;22.10;52.59;100552.94;1702943;84;21043;-38
2021/07/23 05:46:15;;;;;;;3.05;0.90;;;;;;;22.20;51.56;100557.12;1705967;83;20952;-40
2021/07/23 05:48:42;;;;;;;2.17;0.78;;;;;;;22.26;52.63;100558.03;1705763;82;21043;-39
2021/07/23 05:51:10;;;;;;;6.95;0.80;;;;;;;22.42;51.93;100561.81;1698697;82;21137;-40
2021/07/23 05:53:38;;;;;;;1.50;0.98;;;;;;;22.57;51.30;100563.91;1694860;84;20998;-40
2021/07/23 05:56:06;;;;;;;5.58;1.00;;;;;;;22.64;50.38;100558.62;1701028;83;20962;-39
2021/07/23 05:58:32;;;;;;;3.20;0.80;;;;;;;22.81;50.14;100553.51;1700513;84;20988;-40
2021/07/23 06:01:01;;;;;;;4.50;0.95;;;;;;;23.02;49.11;100557.39;1699071;84;20996;-40
2021/07/23 06:03:27;;;;;;;1.82;0.80;;;;;;;23.06;49.40;100557.55;1691295;84;21862;-39
2021/07/23 06:05:54;;;;;;;11.68;1.05;;;;;;;23.30;49.15;100558.13;1679576;84;21561;-40
2021/07/23 06:08:20;;;;;;;1.07;0.90;;;;;;;23.55;48.35;100551.95;1692599;84;21539;-39
2021/07/23 06:10:48;;;;;;;3.27;1.20;;;;;;;23.85;47.62;100551.14;1685002;83;20952;-40
2021/07/23 06:13:15;;;;;;;4.20;0.88;;;;;;;24.06;46.33;100548.77;1682563;83;20910;-39
2021/07/23 06:15:41;;;;;;;3.80;0.95;;;;;;;24.21;46.34;100549.42;1654555;84;21029;-40
2021/07/23 06:18:08;;;;;;;5.65;0.90;;;;;;;24.11;46.20;100549.27;1677730;84;20990;-41
2021/07/23 06:20:34;;;;;;;1.75;0.88;;;;;;;24.11;45.42;100547.45;1682812;84;21003;-38
2021/07/23 06:23:01;;;;;;;2.70;1.10;;;;;;;24.06;45.21;100547.45;1681234;85;20951;-40
2021/07/23 06:25:29;;;;;;;2.17;1.12;;;;;;;23.69;44.54;100547.00;1679545;84;21564;-38
2021/07/23 06:27:56;;;;;;;2.80;0.70;;;;;;;23.38;44.50;100542.61;1679876;85;21151;-39
2021/07/23 06:30:22;;;;;;;4.78;0.75;;;;;;;23.03;43.26;100549.38;1690558;83;20942;-38
2021/07/23 06:32:49;;;;;;;0.98;0.78;;;;;;;22.65;45.05;100553.71;1679182;85;20940;-38
2021/07/23 06:35:16;;;;;;;0.70;0.50;;;;;;;22.65;45.47;100556.35;1677643;83;20983;-38
2021/07/23 06:37:43;;;;;;;4.03;0.60;;;;;;;22.78;44.34;100548.91;1688602;83;21587;-39
2021/07/23 06:40:11;;;;;;;1.20;0.70;;;;;;;22.96;43.48;100554.23;1692923;83;21789;-40
2021/07/23 06:42:38;;;;;;;4.65;0.75;;;;;;;23.12;41.57;100547.91;1672431;83;20914;-40
2021/07/23 06:45:06;;;;;;;4.33;0.70;;;;;;;23.13;42.44;100548.27;1692307;83;21005;-39
2021/07/23 06:47:32;;;;;;;1.10;0.60;;;;;;;23.29;44.46;100556.44;1680948;84;21469;-38
2021/07/23 06:49:59;;;;;;;2.45;0.95;;;;;;;23.53;42.82;100540.66;1678369;85;21371;-38
2021/07/23 06:52:26;;;;;;;1.72;0.78;;;;;;;23.67;43.23;100547.58;1680697;85;21947;-39
2021/07/23 06:54:54;;;;;;;2.35;0.80;;;;;;;23.87;43.03;100546.58;1671816;85;21615;-37
2021/07/23 06:57:20;;;;;;;2.85;0.70;;;;;;;24.06;42.85;100545.63;1682632;83;20914;-38
2021/07/23 06:59:49;;;;;;;2.27;0.55;;;;;;;24.19;40.22;100546.88;1671631;83;20927;-38
2021/07/23 07:02:15;;;;;;;1.22;0.60;;;;;;;23.81;39.82;100543.44;1687987;83;21033;-40
2021/07/23 07:04:44;;;;;;;2.72;0.68;;;;;;;23.47;39.86;100544.58;1686687;83;21151;-39
2021/07/23 07:07:11;;;;;;;2.08;0.50;;;;;;;23.32;41.50;100542.55;1685334;83;21021;-39
2021/07/23 07:09:39;;;;;;;0.68;0.60;;;;;;;23.46;40.57;100542.03;1685403;83;21493;-39
2021/07/23 07:12:07;;;;;;;1.65;0.70;;;;;;;23.64;40.80;100546.00;1672661;85;20933;-39
2021/07/23 07:14:33;;;;;;;2.65;0.50;;;;;;;23.72;41.86;100548.55;1666577;85;20984;-40
2021/07/23 07:17:00;;;;;;;1.22;0.50;;;;;;;23.80;40.21;100544.89;1665350;85;21141;-40
2021/07/23 07:19:27;;;;;;;3.98;0.55;;;;;;;23.67;39.47;100543.62;1675128;85;21477;-39
2021/07/23 07:21:53;;;;;;;4.92;0.75;;;;;;;23.77;39.40;100553.88;1667101;84;20960;-39
2021/07/23 07:24:20;;;;;;;2.95;0.80;;;;;;;23.83;40.13;100545.49;1668051;85;20973;-38
2021/07/23 07:26:49;;;;;;;0.60;0.60;;;;;;;23.90;39.14;100555.14;1672691;85;20935;-44
2021/07/23 07:29:16;;;;;;;3.25;0.68;;;;;;;23.72;40.32;100544.12;1675723;85;21154;-39
2021/07/23 07:31:43;;;;;;;1.80;0.68;;;;;;;23.87;40.28;100556.69;1675914;85;21545;-38
2021/07/23 07:34:09;;;;;;;2.40;0.85;;;;;;;23.91;39.85;100543.61;1672320;85;21002;-39
2021/07/23 07:36:36;;;;;;;3.62;0.72;;;;;;;24.02;39.16;100541.53;1671987;85;21567;-40
2021/07/23 07:39:04;;;;;;;2.05;0.60;;;;;;;24.02;40.42;100545.50;1665144;85;20952;-39
2021/07/23 07:41:30;;;;;;;2.02;0.72;;;;;;;24.09;39.40;100537.47;1674389;85;21144;-40
2021/07/23 07:43:57;;;;;;;4.72;0.70;;;;;;;24.28;38.06;100545.35;1650450;85;20996;-40
2021/07/23 07:46:24;;;;;;;5.55;0.82;;;;;;;24.38;37.70;100541.08;1670984;84;21003;-39
2021/07/23 07:48:52;;;;;;;1.10;0.70;;;;;;;24.50;37.44;100539.77;1666984;85;21065;-39
2021/07/23 07:51:18;;;;;;;4.15;0.75;;;;;;;24.61;37.30;100538.45;1667987;85;20984;-39
2021/07/23 07:53:45;;;;;;;1.00;0.60;;;;;;;24.77;37.69;100541.28;1667508;85;21133;-40
2021/07/23 07:56:12;;;;;;;7.28;0.70;;;;;;;24.89;38.27;100541.66;1671467;84;21505;-38
2021/07/23 07:58:39;;;;;;;4.58;0.70;;;;;;;24.99;36.57;100538.29;1669785;85;20933;-38
2021/07/23 08:01:10;;;;;;;5.17;0.70;;;;;;;24.86;37.14;100533.11;1643207;85;21008;-39
2021/07/23 08:03:37;;;;;;;1.37;0.60;;;;;;;24.93;38.27;100541.78;1675078;85;21038;-38
2021/07/23 08:06:11;;;;;;;6.28;0.70;;;;;;;25.11;37.16;100543.92;1673366;85;21076;-38
2021/07/23 08:08:38;;;;;;;2.13;0.50;;;;;;;25.14;37.25;100543.72;1677747;84;21010;-39
2021/07/23 08:11:05;;;;;;;1.65;0.42;;;;;;;25.20;36.57;100543.22;1692069;83;20978;-39
2021/07/23 08:13:31;;;;;;;1.00;0.50;;;;;;;25.09;36.40;100538.77;1719551;83;20980;-39
2021/07/23 08:15:59;;;;;;;0.82;0.47;;;;;;;24.95;37.60;100545.16;1719270;83;20944;-39
2021/07/23 08:18:26;;;;;;;5.75;0.65;;;;;;;25.05;37.07;100543.09;1719448;83;21198;-39
2021/07/23 08:20:53;;;;;;;0.62;0.53;;;;;;;25.17;36.27;100543.94;1719523;82;20918;-37
2021/07/23 08:23:20;;;;;;;7.17;0.60;;;;;;;25.34;35.52;100531.53;1719818;83;20985;-39
2021/07/23 08:25:48;;;;;;;6.37;0.70;;;;;;;25.42;36.14;100534.89;1719716;82;20925;-39
2021/07/23 08:28:15;;;;;;;5.78;0.50;;;;;;;25.61;35.73;100530.77;1719276;83;21577;-40
2021/07/23 08:30:42;;;;;;;3.67;1.40;;;;;;;25.67;35.99;100539.56;1718928;83;21465;-39
2021/07/23 08:33:10;;;;;;;3.67;3.37;;;;;;;25.62;35.06;100534.63;1719156;83;21005;-39
2021/07/23 08:35:38;;;;;;;3.87;1.07;;;;;;;25.62;35.32;100533.77;1719496;82;20873;-39
2021/07/23 08:38:04;;;;;;;1.17;0.95;;;;;;;25.56;35.66;100539.58;1719764;82;21609;-40
2021/07/23 08:40:33;;;;;;;4.47;0.65;;;;;;;25.54;36.55;100533.09;1719520;82;21036;-38
2021/07/23 08:43:03;;;;;;;2.10;0.70;;;;;;;25.57;36.76;100530.66;1719568;83;21144;-38
2021/07/23 08:45:31;;;;;;;0.75;0.40;;;;;;;25.60;36.20;100535.23;1718876;83;20999;-37
2021/07/23 08:47:58;;;;;;;9.73;0.70;;;;;;;25.63;35.80;100534.12;1719013;83;20982;-38
2021/07/23 08:50:25;;;;;;;4.95;0.68;;;;;;;25.57;36.40;100533.31;1692980;83;20950;-38
2021/07/23 08:52:54;;;;;;;2.40;0.60;;;;;;;25.47;34.72;100534.06;1719291;83;21023;-38
2021/07/23 08:55:23;;;;;;;1.35;0.50;;;;;;;25.44;37.23;100528.98;1719367;83;21211;-39
2021/07/23 08:57:50;;;;;;;12.35;0.80;;;;;;;25.77;36.81;100529.88;1719494;83;21498;-39
2021/07/23 09:00:21;;;;;;;9.93;0.42;;;;;;;26.05;37.69;100526.28;1719489;83;20890;-39
2021/07/23 09:03:01;;;;;;;4.67;0.72;;;;;;;26.19;34.92;100525.16;1719635;83;20980;-39
2021/07/23 09:05:38;;;;;;;6.87;0.40;;;;;;;26.32;33.61;100529.44;1717928;83;20827;-38
2021/07/23 09:08:15;;;;;;;0.98;0.40;;;;;;;26.30;34.37;100524.25;1719455;83;22299;-40
2021/07/23 09:10:43;;;;;;;1.82;0.80;;;;;;;26.28;36.90;100523.55;1717689;82;21561;-38
2021/07/23 09:13:11;;;;;;;4.17;0.68;;;;;;;26.55;35.01;100523.50;1706262;82;20973;-38
2021/07/23 09:15:40;;;;;;;2.72;0.40;;;;;;;26.54;34.17;100521.34;1686051;84;20943;-38
2021/07/23 09:18:33;;;;;;;0.80;0.50;;;;;;;26.65;35.64;100523.55;1702508;84;21019;-39
2021/07/23 09:21:03;;;;;;;3.27;0.70;;;;;;;26.70;36.37;100514.70;1706419;84;21156;-40
2021/07/23 09:23:34;;;;;;;1.05;0.55;;;;;;;26.76;36.98;100514.17;1705928;83;20983;-38
2021/07/23 09:26:15;;;;;;;0.75;0.45;;;;;;;27.01;33.63;100512.06;1704991;84;21014;-39
2021/07/23 09:28:46;;;;;;;3.67;0.60;;;;;;;27.11;33.24;100509.44;1695306;83;20943;-39
2021/07/23 09:31:23;;;;;;;2.15;0.53;;;;;;;27.02;31.78;100511.09;1696191;84;20944;-38
2021/07/23 09:34:02;;;;;;;7.20;0.72;;;;;;;26.86;33.78;100512.92;1706143;83;21108;-39
2021/07/23 09:36:26;;;;;;;1.05;0.62;;;;;;;26.82;34.67;100516.31;1693108;84;20933;-38
2021/07/23 09:39:03;;;;;;;2.52;0.60;;;;;;;26.89;33.81;100509.98;1706170;83;21490;-39
2021/07/23 09:41:30;;;;;;;2.47;0.50;;;;;;;27.00;34.06;100513.04;1703364;84;21471;-39
2021/07/23 09:44:11;;;;;;;1.85;0.50;;;;;;;27.12;32.73;100512.45;1696418;84;20972;-39
2021/07/23 09:46:48;;;;;;;1.98;0.78;;;;;;;27.27;32.57;100502.78;1701151;83;21084;-40
2021/07/23 09:49:27;;;;;;;1.65;1.22;;;;;;;27.33;34.14;100501.76;1691420;84;20968;-39
2021/07/23 09:52:01;;;;;;;5.55;1.30;;;;;;;27.46;32.43;100505.96;1691382;84;20988;-39
2021/07/23 09:54:25;;;;;;;1.60;0.70;;;;;;;27.54;32.31;100493.70;1696107;83;20995;-39
2021/07/23 09:56:53;;;;;;;2.98;1.40;;;;;;;27.72;32.38;100501.00;1702682;82;21019;-40
2021/07/23 09:59:38;;;;;;;10.50;0.93;;;;;;;27.73;31.86;100500.49;1700347;83;21783;-40
2021/07/23 10:02:10;;;;;;;1.80;0.55;;;;;;;27.77;32.78;100496.09;1692389;82;21449;-40
2021/07/23 10:04:56;;;;;;;3.17;0.65;;;;;;;27.64;34.16;100492.86;1674891;84;21568;-40
2021/07/23 10:07:26;;;;;;;6.05;0.98;;;;;;;27.64;33.28;100490.20;1691750;84;21737;-38
2021/07/23 10:09:55;;;;;;;2.10;1.90;;;;;;;27.80;33.62;100495.81;1694302;84;21509;-39
2021/07/23 10:12:21;;;;;;;3.02;1.10;;;;;;;28.10;32.47;100493.97;1706680;82;21076;-39
2021/07/23 10:14:48;;;;;;;4.25;0.78;;;;;;;28.08;32.03;100509.23;1694036;84;21003;-38
2021/07/23 10:17:14;;;;;;;8.50;1.87;;;;;;;27.87;33.05;100496.09;1641997;85;21035;-39
2021/07/23 10:19:41;;;;;;;7.08;0.80;;;;;;;28.00;32.02;100497.14;1704704;83;20927;-39
2021/07/23 10:22:13;;;;;;;6.10;3.08;;;;;;;28.03;33.11;100498.18;1703763;83;20956;-39
2021/07/23 10:27:18;;;;;;;9.15;1.55;;;;;;;28.24;31.64;100494.55;1796526;79;22599;-39
2021/07/23 10:29:49;;;;;;;4.70;1.40;;;;;;;27.92;31.54;100493.84;1754014;80;21545;-40
2021/07/23 10:32:33;;;;;;;1.98;0.80;;;;;;;27.33;31.78;100487.15;1754282;81;21150;-40
2021/07/23 10:35:18;;;;;;;3.00;0.68;;;;;;;27.17;32.40;100487.67;1771568;80;21478;-38
2021/07/23 10:37:54;;;;;;;5.47;0.90;;;;;;;27.18;33.09;100485.84;1776922;80;20983;-39
2021/07/23 10:40:24;;;;;;;2.42;1.47;;;;;;;27.22;33.23;100488.58;1756038;80;20987;-38
2021/07/23 10:42:50;;;;;;;3.22;2.62;;;;;;;27.50;32.70;100487.43;1733252;81;21017;-39
2021/07/23 10:45:20;;;;;;;8.15;1.20;;;;;;;27.68;32.23;100484.98;1776765;80;21188;-39
2021/07/23 10:47:49;;;;;;;4.60;0.80;;;;;;;27.89;31.54;100468.88;1778137;80;20901;-38
2021/07/23 10:50:31;;;;;;;6.12;0.88;;;;;;;28.05;31.72;100476.27;1760078;80;20908;-38
2021/07/23 10:52:58;;;;;;;1.90;0.70;;;;;;;28.17;31.17;100476.98;1755705;80;21110;-38
2021/07/23 10:55:27;;;;;;;6.00;1.07;;;;;;;28.22;33.84;100475.23;1664133;84;21047;-40
2021/07/23 10:58:11;;;;;;;6.55;0.60;;;;;;;28.38;31.43;100477.28;1720145;81;21145;-39
2021/07/23 11:00:53;;;;;;;1.52;1.00;;;;;;;28.34;31.08;100469.25;1683500;84;21059;-39
2021/07/23 11:03:42;;;;;;;2.80;0.70;;;;;;;27.97;32.25;100474.31;1693244;83;20999;-39
2021/07/23 11:06:25;;;;;;;4.22;0.72;;;;;;;28.01;31.75;100468.70;1706809;84;21580;-39
2021/07/23 11:08:54;;;;;;;1.45;0.75;;;;;;;28.16;32.82;100465.14;1700702;84;21547;-40
2021/07/23 11:11:25;;;;;;;1.98;0.90;;;;;;;28.21;33.11;100458.92;1704468;84;21151;-39
2021/07/23 11:13:52;;;;;;;4.30;0.80;;;;;;;28.25;31.67;100459.80;1677112;84;20960;-40
2021/07/23 11:16:27;;;;;;;3.87;0.60;;;;;;;27.91;32.79;100458.08;1707623;83;20999;-39
2021/07/23 11:18:57;;;;;;;2.45;0.78;;;;;;;27.67;33.89;100450.90;1683758;83;21082;-39
2021/07/23 11:21:34;;;;;;;1.75;0.80;;;;;;;27.43;33.51;100465.91;1658731;84;21020;-38
2021/07/23 11:24:10;;;;;;;2.70;0.60;;;;;;;27.46;32.36;100455.47;1686296;84;21129;-39
2021/07/23 11:26:39;;;;;;;4.05;0.55;;;;;;;27.72;33.63;100451.81;1663283;84;20949;-39
2021/07/23 11:29:06;;;;;;;2.72;0.90;;;;;;;28.05;31.42;100453.66;1693411;84;20986;-38
2021/07/23 11:31:36;;;;;;;2.77;1.00;;;;;;;28.24;31.89;100457.30;1727454;82;21097;-38
2021/07/23 11:34:25;;;;;;;9.13;1.20;;;;;;;28.43;32.83;100439.61;1730618;82;20983;-38
2021/07/23 11:36:54;;;;;;;3.58;0.85;;;;;;;28.75;32.83;100447.66;1728651;82;21188;-39